Upper Arlington, Ohio
Current Conditions -  °F | °C
As of 3:53 AM on Wednesday 22 Oct 2014 (Local Time) from KOSU Reporting Station
Overcast Overcast  
Wind Chill: 39°   Ceiling: 800
Heat Index: 44°   Visibility: 9mi
Dew Point: 41°   Wind: 10mph
Humidity: 89%   Direction: 340°NNW
Pressure: 30.17"   Gusts: NA
Location:  40.03°N, 83.05°W
Report Text: KOSU 220753Z AUTO 34009KT 9SM OVC008 07/05 A3017 RMK AO2 SLP218 T00670050
Loading
Personal Weather Stations






























Interactive Weather Map
Tropical Storm Tracking
New forecast layout! Learn more

10-Day Weather Forecast

Advertisements
Track Severe Weather on mobile